| time (UTC) | temp C | wind direction | speed KPH | gust KPH | rain 1hr cm | rain 24hr cm | rain mn cm | humidity % | barometer mb |
| 20260902220706 | 21 | 17 | 14.5 | 27.4 | 0.28 | 0.48 | 0.28 | 65 | 1017.0 |
| 20260902215435 | 21 | 16 | 16.1 | 24.1 | 0.18 | 0.38 | 0.18 | 64 | 1017.0 |
| 20260902214207 | 22 | 15 | 14.5 | 19.3 | 0.00 | 0.18 | 0.00 | 63 | 1016.0 |
| 20260902212935 | 21 | 22 | 8.0 | 12.9 | 0.08 | 0.18 | 0.00 | 64 | 1016.0 |
| 20260902211706 | 21 | 22 | 9.7 | 16.1 | 0.08 | 0.18 | 0.00 | 63 | 1016.0 |
| 20260902210435 | 21 | 10 | 12.9 | 19.3 | 0.08 | 0.18 | 0.00 | 62 | 1016.0 |
| 20260902205206 | 21 | 27 | 6.4 | 12.9 | 0.08 | 0.18 | 0.18 | 59 | 1016.0 |
| 20260902203935 | 22 | 14 | 14.5 | 30.6 | 0.08 | 0.18 | 0.18 | 49 | 1016.0 |
| 20260902202706 | 25 | 15 | 9.7 | 20.9 | 0.00 | 0.08 | 0.08 | 38 | 1016.0 |
| 20260902201435 | 26 | 274 | 4.8 | 8.0 | 0.00 | 0.08 | 0.08 | 34 | 1016.0 |
| 20260902200206 | 26 | 244 | 0.0 | 6.4 | 0.00 | 0.08 | 0.08 | 32 | 1015.0 |
| 20260902194935 | 27 | 0 | 0.0 | 0.0 | 0.00 | 0.08 | 0.08 | 31 | 1015.0 |
| 20260902193706 | 27 | 0 | 0.0 | 0.0 | 0.00 | 0.08 | 0.08 | 31 | 1016.0 |
| 20260902192435 | 27 | 0 | 0.0 | 0.0 | 0.00 | 0.08 | 0.08 | 31 | 1016.0 |
| 20260902191206 | 27 | 0 | 0.0 | 0.0 | 0.00 | 0.08 | 0.08 | 30 | 1016.0 |
| 20260902185935 | 27 | 0 | 0.0 | 0.0 | 0.00 | 0.08 | 0.08 | 30 | 1016.0 |
| 20260902183435 | 27 | 0 | 0.0 | 0.0 | 0.00 | 0.08 | 0.08 | 29 | 1015.0 |
| 20260902182205 | 27 | 0 | 0.0 | 0.0 | 0.00 | 0.08 | 0.08 | 29 | 1015.0 |
| 20260902180934 | 27 | 176 | 0.0 | 3.2 | 0.00 | 0.08 | 0.08 | 28 | 1015.0 |
| 20260902175705 | 27 | 163 | 0.0 | 4.8 | 0.00 | 0.08 | 0.08 | 28 | 1015.0 |
| 20260902171935 | 28 | 0 | 0.0 | 0.0 | 0.00 | 0.08 | 0.08 | 26 | 1015.0 |
| 20260902170705 | 28 | 131 | 0.0 | 4.8 | 0.00 | 0.08 | 0.08 | 26 | 1015.0 |
| 20260902165434 | 28 | 0 | 0.0 | 0.0 | 0.00 | 0.08 | 0.08 | 24 | 1015.0 |
| 20260902164205 | 28 | 158 | 0.0 | 4.8 | 0.00 | 0.08 | 0.08 | 24 | 1015.0 |
| 20260902162934 | 29 | 161 | 1.6 | 8.0 | 0.00 | 0.08 | 0.08 | 23 | 1015.0 |
| 20260902161705 | 29 | 127 | 3.2 | 8.0 | 0.00 | 0.08 | 0.08 | 20 | 1015.0 |
| 20260902160434 | 30 | 149 | 0.0 | 6.4 | 0.00 | 0.08 | 0.08 | 19 | 1015.0 |
| 20260902153934 | 30 | 170 | 6.4 | 11.3 | 0.00 | 0.08 | 0.08 | 22 | 1015.0 |
| 20260902152705 | 31 | 165 | 8.0 | 12.9 | 0.00 | 0.08 | 0.08 | 19 | 1015.0 |
| 20260902151434 | 31 | 171 | 4.8 | 12.9 | 0.00 | 0.08 | 0.08 | 16 | 1015.0 |
| 20260902150204 | 31 | 174 | 4.8 | 11.3 | 0.00 | 0.08 | 0.08 | 14 | 1015.0 |
| 20260902144934 | 31 | 170 | 6.4 | 12.9 | 0.00 | 0.08 | 0.08 | 15 | 1015.0 |
| 20260902143705 | 31 | 164 | 9.7 | 14.5 | 0.00 | 0.08 | 0.08 | 16 | 1015.0 |
| 20260902142434 | 31 | 173 | 6.4 | 9.7 | 0.00 | 0.08 | 0.08 | 16 | 1015.0 |
| 20260902141204 | 31 | 184 | 3.2 | 11.3 | 0.00 | 0.08 | 0.08 | 16 | 1015.0 |
| 20260902135933 | 31 | 155 | 1.6 | 8.0 | 0.00 | 0.08 | 0.08 | 16 | 1015.0 |
| 20260902134704 | 31 | 171 | 6.4 | 9.7 | 0.00 | 0.08 | 0.08 | 17 | 1015.0 |
| 20260902132351 | 31 | 171 | 3.2 | 9.7 | 0.00 | 0.08 | 0.08 | 19 | 1015.0 |
| 20260902125851 | 31 | 159 | 4.8 | 12.9 | 0.00 | 0.08 | 0.08 | 21 | 1016.0 |
| 20260902123350 | 31 | 202 | 3.2 | 9.7 | 0.00 | 0.08 | 0.08 | 23 | 1016.0 |
| 20260902120850 | 31 | 247 | 6.4 | 12.9 | 0.00 | 0.08 | 0.08 | 26 | 1017.0 |
| 20260902115621 | 31 | 238 | 8.0 | 12.9 | 0.00 | 0.08 | 0.08 | 27 | 1017.0 |
| 20260902114350 | 30 | 206 | 6.4 | 9.7 | 0.00 | 0.08 | 0.08 | 28 | 1017.0 |
| 20260902113121 | 30 | 241 | 6.4 | 11.3 | 0.00 | 0.08 | 0.08 | 29 | 1017.0 |
| 20260902111850 | 30 | 249 | 8.0 | 12.9 | 0.00 | 0.08 | 0.08 | 29 | 1017.0 |
| 20260902110621 | 30 | 228 | 6.4 | 12.9 | 0.00 | 0.08 | 0.08 | 29 | 1017.0 |
| 20260902105350 | 30 | 247 | 8.0 | 12.9 | 0.00 | 0.08 | 0.08 | 29 | 1017.0 |
| 20260902102850 | 30 | 194 | 6.4 | 11.3 | 0.00 | 0.08 | 0.08 | 31 | 1017.0 |
| 20260902101620 | 29 | 177 | 6.4 | 11.3 | 0.00 | 0.08 | 0.08 | 32 | 1017.0 |
| 20260902100349 | 29 | 178 | 3.2 | 9.7 | 0.00 | 0.08 | 0.08 | 31 | 1017.0 |
| 20260902095120 | 28 | 203 | 1.6 | 6.4 | 0.00 | 0.08 | 0.08 | 31 | 1018.0 |
| 20260902093849 | 28 | 184 | 4.8 | 8.0 | 0.00 | 0.08 | 0.08 | 33 | 1018.0 |
| 20260902092620 | 28 | 210 | 3.2 | 9.7 | 0.00 | 0.08 | 0.08 | 36 | 1018.0 |
| 20260902091349 | 28 | 211 | 4.8 | 8.0 | 0.00 | 0.08 | 0.08 | 41 | 1018.0 |
| 20260902090120 | 28 | 175 | 3.2 | 8.0 | 0.00 | 0.08 | 0.08 | 43 | 1018.0 |
| 20260902084849 | 28 | 203 | 3.2 | 9.7 | 0.00 | 0.08 | 0.08 | 45 | 1018.0 |
| 20260902083620 | 28 | 245 | 1.6 | 8.0 | 0.00 | 0.08 | 0.08 | 46 | 1018.0 |
| 20260902082349 | 28 | 240 | 3.2 | 8.0 | 0.00 | 0.08 | 0.08 | 47 | 1018.0 |
| 20260902075849 | 28 | 241 | 1.6 | 6.4 | 0.00 | 0.08 | 0.08 | 47 | 1018.0 |
| 20260902074620 | 28 | 234 | 3.2 | 6.4 | 0.00 | 0.08 | 0.08 | 47 | 1018.0 |
| 20260902073349 | 27 | 238 | 0.0 | 4.8 | 0.00 | 0.08 | 0.08 | 46 | 1018.0 |
| 20260902072120 | 28 | 257 | 0.0 | 3.2 | 0.00 | 0.08 | 0.08 | 47 | 1018.0 |
| 20260902070849 | 28 | 0 | 0.0 | 0.0 | 0.00 | 0.08 | 0.08 | 47 | 1017.0 |
| 20260902064349 | 27 | 0 | 0.0 | 0.0 | 0.00 | 0.08 | 0.08 | 50 | 1017.0 |
| 20260902063119 | 27 | 268 | 0.0 | 4.8 | 0.00 | 0.08 | 0.08 | 52 | 1017.0 |
| 20260902061849 | 26 | 259 | 3.2 | 6.4 | 0.00 | 0.08 | 0.08 | 54 | 1017.0 |
| 20260902060619 | 26 | 259 | 0.0 | 6.4 | 0.00 | 0.08 | 0.08 | 55 | 1017.0 |
| 20260902055348 | 25 | 0 | 0.0 | 0.0 | 0.00 | 0.08 | 0.08 | 55 | 1017.0 |
| 20260902052848 | 24 | 0 | 0.0 | 0.0 | 0.00 | 0.08 | 0.08 | 55 | 1017.0 |
| 20260902051619 | 24 | 0 | 0.0 | 0.0 | 0.00 | 0.08 | 0.08 | 55 | 1017.0 |
| 20260902050348 | 24 | 0 | 0.0 | 0.0 | 0.00 | 0.08 | 0.08 | 56 | 1017.0 |
| 20260902045119 | 23 | 0 | 0.0 | 0.0 | 0.00 | 0.08 | 0.08 | 55 | 1017.0 |
| 20260902044711 | 23 | 0 | 0.0 | 0.0 | 0.00 | 0.08 | 0.08 | 56 | 1017.0 |
| 20260902043440 | 23 | 9 | 0.0 | 3.2 | 0.00 | 0.08 | 0.08 | 56 | 1017.0 |
| 20260902042210 | 23 | 8 | 1.6 | 4.8 | 0.00 | 0.08 | 0.08 | 58 | 1017.0 |
| 20260902040940 | 23 | 0 | 0.0 | 0.0 | 0.00 | 0.08 | 0.08 | 59 | 1017.0 |
| 20260902035710 | 23 | 8 | 1.6 | 3.2 | 0.00 | 0.08 | 0.08 | 59 | 1016.0 |
| 20260902034439 | 23 | 0 | 0.0 | 0.0 | 0.00 | 0.08 | 0.08 | 59 | 1017.0 |
| 20260902031940 | 23 | 6 | 3.2 | 4.8 | 0.00 | 0.08 | 0.08 | 57 | 1017.0 |
| 20260902030710 | 23 | 8 | 3.2 | 6.4 | 0.00 | 0.08 | 0.08 | 56 | 1017.0 |
| 20260902025439 | 24 | 11 | 3.2 | 6.4 | 0.00 | 0.08 | 0.08 | 56 | 1017.0 |
| 20260902024211 | 24 | 14 | 1.6 | 4.8 | 0.00 | 0.08 | 0.08 | 55 | 1017.0 |
| 20260902022939 | 24 | 16 | 0.0 | 3.2 | 0.08 | 0.08 | 0.08 | 54 | 1017.0 |
| 20260902021711 | 24 | 18 | 1.6 | 4.8 | 0.08 | 0.08 | 0.08 | 50 | 1016.0 |
| 20260902020439 | 25 | 18 | 3.2 | 6.4 | 0.08 | 0.08 | 0.08 | 49 | 1017.0 |
| 20260902015210 | 25 | 24 | 4.8 | 6.4 | 0.08 | 0.08 | 0.08 | 48 | 1016.0 |
| 20260902013939 | 25 | 22 | 6.4 | 12.9 | 0.08 | 0.08 | 0.08 | 46 | 1016.0 |
| 20260902012710 | 25 | 19 | 6.4 | 12.9 | 0.00 | 0.00 | 0.00 | 44 | 1016.0 |
| 20260902011439 | 25 | 13 | 4.8 | 9.7 | 0.00 | 0.00 | 0.00 | 44 | 1017.0 |
| 20260902010210 | 25 | 16 | 6.4 | 11.3 | 0.00 | 0.00 | 0.00 | 45 | 1017.0 |
| 20260902004939 | 25 | 263 | 0.0 | 3.2 | 0.00 | 0.00 | 0.00 | 45 | 1017.0 |
| 20260902003710 | 25 | 0 | 0.0 | 0.0 | 0.00 | 0.00 | 0.00 | 44 | 1017.0 |
| 20260902002439 | 25 | 0 | 0.0 | 0.0 | 0.00 | 0.00 | 0.00 | 43 | 1017.0 |
| 20260902001210 | 25 | 0 | 0.0 | 0.0 | 0.00 | 0.00 | 0.00 | 43 | 1017.0 |
| 20260901235939 | 25 | 262 | 0.0 | 6.4 | 0.00 | 0.00 | 0.00 | 43 | 1016.0 |
| 20260901234710 | 25 | 252 | 0.0 | 3.2 | 0.00 | 0.00 | 0.00 | 42 | 1016.0 |
| 20260901233439 | 26 | 0 | 0.0 | 0.0 | 0.00 | 0.00 | 0.00 | 42 | 1016.0 |
| 20260901232210 | 26 | 0 | 0.0 | 0.0 | 0.00 | 0.00 | 0.00 | 42 | 1016.0 |
| 20260901230939 | 26 | 0 | 0.0 | 0.0 | 0.00 | 0.00 | 0.00 | 43 | 1016.0 |
| 20260901225710 | 26 | 0 | 0.0 | 0.0 | 0.00 | 0.00 | 0.00 | 43 | 1016.0 |
| 20260901224439 | 26 | 0 | 0.0 | 0.0 | 0.00 | 0.00 | 0.00 | 43 | 1016.0 |
| 20260901223209 | 26 | 23 | 0.0 | 4.8 | 0.00 | 0.00 | 0.00 | 43 | 1016.0 |
| 20260901221938 | 26 | 15 | 3.2 | 6.4 | 0.00 | 0.00 | 0.00 | 42 | 1016.0 |